Time;durP1;ratioP1;P1;durP2;ratioP2;P2;SDS_P1;SDS_P2;PMS_P1;PMS_P2;Temp;Humidity;BMP_temperature;BMP_pressure;BME280_temperature;BME280_humidity;BME280_pressure;Samples;Min_cycle;Max_cycle;Signal;HPM_P1;HPM_P2
2021/03/11 00:01:43;;;;;;;;;;;22.90;35.00;;;;;;1551958;75;1169;-57
2021/03/11 00:03:44;;;;;;;;;;;22.90;35.00;;;;;;1552434;75;721;-55
2021/03/11 00:05:46;;;;;;;;;;;22.90;35.10;;;;;;1551380;75;1934;-53
2021/03/11 00:07:48;;;;;;;;;;;22.90;35.10;;;;;;1533227;75;748;-57
2021/03/11 00:09:50;;;;;;;;;;;22.90;35.10;;;;;;1551023;75;725;-58
2021/03/11 00:11:52;;;;;;;;;;;22.80;35.00;;;;;;1557050;75;1136;-58
2021/03/11 00:13:54;;;;;;;;;;;22.80;35.00;;;;;;1562537;75;769;-57
2021/03/11 00:15:56;;;;;;;;;;;22.90;35.20;;;;;;1558884;75;771;-58
2021/03/11 00:17:58;;;;;;;;;;;22.80;35.10;;;;;;1535845;75;741;-55
2021/03/11 00:20:00;;;;;;;;;;;22.80;35.20;;;;;;1556794;75;796;-56
2021/03/11 00:22:02;;;;;;;;;;;22.80;35.10;;;;;;1554077;75;1105;-57
2021/03/11 00:24:04;;;;;;;;;;;22.80;35.20;;;;;;1549844;75;735;-54
2021/03/11 00:26:05;;;;;;;;;;;22.80;35.10;;;;;;1555829;75;1927;-54
2021/03/11 00:28:07;;;;;;;;;;;22.80;35.10;;;;;;1549976;75;711;-55
2021/03/11 00:30:10;;;;;;;;;;;22.80;35.20;;;;;;1558765;76;717;-58
2021/03/11 00:32:12;;;;;;;;;;;22.70;35.30;;;;;;1552468;75;1146;-57
2021/03/11 00:34:13;;;;;;;;;;;22.80;35.30;;;;;;1555602;75;759;-58
2021/03/11 00:36:15;;;;;;;;;;;22.80;35.20;;;;;;1539003;75;717;-57
2021/03/11 00:38:17;;;;;;;;;;;22.80;35.20;;;;;;1544738;75;779;-58
2021/03/11 00:40:20;;;;;;;;;;;22.80;35.10;;;;;;1534116;75;745;-56
2021/03/11 00:42:21;;;;;;;;;;;22.70;35.20;;;;;;1550608;75;1171;-55
2021/03/11 00:44:23;;;;;;;;;;;22.80;35.00;;;;;;1554510;75;722;-56
2021/03/11 00:46:25;;;;;;;;;;;22.80;35.00;;;;;;1547934;75;1944;-56
2021/03/11 00:48:27;;;;;;;;;;;22.80;35.00;;;;;;1549176;75;660;-55
2021/03/11 00:50:29;;;;;;;;;;;22.80;35.00;;;;;;1558161;75;764;-54
2021/03/11 00:52:31;;;;;;;;;;;22.80;35.00;;;;;;1544685;75;1127;-57
2021/03/11 00:54:33;;;;;;;;;;;22.90;35.20;;;;;;1557061;75;734;-51
2021/03/11 00:56:35;;;;;;;;;;;22.90;35.20;;;;;;1548916;75;743;-56
2021/03/11 00:58:36;;;;;;;;;;;22.90;35.10;;;;;;1550517;75;757;-56
2021/03/11 01:00:38;;;;;;;;;;;22.90;35.20;;;;;;1567997;74;1043;-55
2021/03/11 01:02:40;;;;;;;;;;;22.90;35.20;;;;;;1574321;74;1184;-57
2021/03/11 01:04:42;;;;;;;;;;;22.90;35.50;;;;;;1575020;74;717;-54
2021/03/11 01:06:44;;;;;;;;;;;22.80;35.40;;;;;;1574209;74;1937;-52
2021/03/11 01:08:46;;;;;;;;;;;22.80;35.50;;;;;;1576014;74;918;-57
2021/03/11 01:10:48;;;;;;;;;;;22.80;35.40;;;;;;1560195;74;723;-57
2021/03/11 01:12:49;;;;;;;;;;;22.90;35.50;;;;;;1567249;74;1110;-56
2021/03/11 01:14:51;;;;;;;;;;;22.90;35.50;;;;;;1576248;74;791;-57
2021/03/11 01:16:53;;;;;;;;;;;22.90;35.50;;;;;;1568169;74;775;-56
2021/03/11 01:18:55;;;;;;;;;;;22.90;35.50;;;;;;1576509;74;898;-56
2021/03/11 01:20:57;;;;;;;;;;;22.90;35.50;;;;;;1569749;74;708;-54
2021/03/11 01:22:59;;;;;;;;;;;22.90;35.40;;;;;;1562762;74;1147;-52
2021/03/11 01:25:01;;;;;;;;;;;22.90;35.30;;;;;;1577400;74;800;-57
2021/03/11 01:27:03;;;;;;;;;;;23.00;35.30;;;;;;1570818;74;1941;-56
2021/03/11 01:29:05;;;;;;;;;;;23.00;35.20;;;;;;1574857;74;736;-56
2021/03/11 01:31:06;;;;;;;;;;;23.00;35.20;;;;;;1571125;74;1151;-51
2021/03/11 01:33:08;;;;;;;;;;;22.90;35.20;;;;;;1580314;74;714;-56
2021/03/11 01:35:10;;;;;;;;;;;22.90;35.20;;;;;;1576079;74;764;-56
2021/03/11 01:37:12;;;;;;;;;;;22.90;35.20;;;;;;1571896;74;692;-56
2021/03/11 01:39:14;;;;;;;;;;;22.90;35.40;;;;;;1565269;74;674;-56
2021/03/11 01:41:16;;;;;;;;;;;22.90;35.50;;;;;;1559560;74;1169;-53
2021/03/11 01:43:18;;;;;;;;;;;22.90;35.60;;;;;;1564152;74;798;-53
2021/03/11 01:45:20;;;;;;;;;;;22.90;35.50;;;;;;1582863;74;764;-57
2021/03/11 01:47:22;;;;;;;;;;;22.90;35.40;;;;;;1563986;74;1923;-58
2021/03/11 01:49:24;;;;;;;;;;;22.90;35.20;;;;;;1572928;74;721;-57
2021/03/11 01:51:26;;;;;;;;;;;22.90;35.30;;;;;;1576627;74;1128;-57
2021/03/11 01:53:29;;;;;;;;;;;22.90;35.20;;;;;;1568508;74;784;-56
2021/03/11 01:55:31;;;;;;;;;;;22.90;35.30;;;;;;1575613;74;750;-53
2021/03/11 01:57:33;;;;;;;;;;;22.90;35.20;;;;;;1568298;74;780;-54
2021/03/11 01:59:35;;;;;;;;;;;22.90;35.20;;;;;;1553708;74;1110;-52
2021/03/11 02:01:37;;;;;;;;;;;22.90;35.30;;;;;;1571131;75;1212;-57
2021/03/11 02:03:39;;;;;;;;;;;22.90;35.30;;;;;;1561047;74;754;-57
2021/03/11 02:05:40;;;;;;;;;;;22.90;35.20;;;;;;1576785;74;767;-57
2021/03/11 02:07:43;;;;;;;;;;;22.90;35.30;;;;;;1575061;74;1917;-51
2021/03/11 02:09:44;;;;;;;;;;;22.90;35.40;;;;;;1565967;75;734;-57
2021/03/11 02:11:51;;;;;;;;;;;22.90;35.40;;;;;;1567360;74;1082;-56
2021/03/11 02:13:54;;;;;;;;;;;22.90;35.30;;;;;;1546228;74;1792;-57
2021/03/11 02:16:14;;;;;;;;;;;22.70;35.50;;;;;;1561682;75;762;-57
2021/03/11 02:18:20;;;;;;;;;;;22.80;35.50;;;;;;1567386;74;753;-57
2021/03/11 02:20:24;;;;;;;;;;;22.70;35.60;;;;;;1577662;75;1675;-53
2021/03/11 02:22:27;;;;;;;;;;;22.80;35.90;;;;;;1575388;74;1702;-57
2021/03/11 02:24:31;;;;;;;;;;;22.80;35.80;;;;;;1570915;74;816;-56
2021/03/11 02:26:51;;;;;;;;;;;22.80;35.70;;;;;;1564591;74;1922;-54
2021/03/11 02:29:00;;;;;;;;;;;22.80;35.80;;;;;;1561960;74;693;-53
2021/03/11 02:31:02;;;;;;;;;;;22.80;35.90;;;;;;1568648;74;1161;-56
2021/03/11 02:33:04;;;;;;;;;;;22.70;36.00;;;;;;1564266;75;969;-56
2021/03/11 02:35:08;;;;;;;;;;;22.70;36.00;;;;;;1574794;74;735;-56
2021/03/11 02:37:14;;;;;;;;;;;22.80;36.20;;;;;;1571495;74;729;-56
2021/03/11 02:39:15;;;;;;;;;;;22.80;36.10;;;;;;1565730;74;721;-53
2021/03/11 02:41:17;;;;;;;;;;;22.80;36.00;;;;;;1567123;74;1121;-52
2021/03/11 02:43:19;;;;;;;;;;;22.90;36.10;;;;;;1549343;74;758;-56
2021/03/11 02:45:25;;;;;;;;;;;22.90;36.00;;;;;;1552228;74;803;-56
2021/03/11 02:47:27;;;;;;;;;;;22.90;35.90;;;;;;1565137;74;1916;-56
2021/03/11 02:49:29;;;;;;;;;;;22.90;35.80;;;;;;1563580;74;784;-57
2021/03/11 02:51:31;;;;;;;;;;;22.90;35.80;;;;;;1547799;74;1133;-57
2021/03/11 02:53:33;;;;;;;;;;;22.90;35.90;;;;;;1555559;74;758;-55
2021/03/11 02:55:34;;;;;;;;;;;22.90;35.70;;;;;;1569447;74;703;-51
2021/03/11 02:57:37;;;;;;;;;;;22.90;35.70;;;;;;1570860;75;743;-52
2021/03/11 02:59:39;;;;;;;;;;;22.90;35.90;;;;;;1571934;74;728;-54
2021/03/11 03:01:41;;;;;;;;;;;23.00;35.70;;;;;;1543334;75;1193;-52
2021/03/11 03:03:42;;;;;;;;;;;22.90;35.70;;;;;;1554535;75;713;-55
2021/03/11 03:05:44;;;;;;;;;;;23.00;35.70;;;;;;1551992;75;702;-55
2021/03/11 03:07:46;;;;;;;;;;;22.90;36.00;;;;;;1553901;75;1925;-56
2021/03/11 03:09:49;;;;;;;;;;;22.80;36.00;;;;;;1556909;75;676;-56
2021/03/11 03:11:51;;;;;;;;;;;22.90;36.10;;;;;;1561226;75;1113;-53
2021/03/11 03:13:53;;;;;;;;;;;22.90;36.00;;;;;;1547293;75;787;-57
2021/03/11 03:16:01;;;;;;;;;;;22.90;36.20;;;;;;1553589;76;759;-57
2021/03/11 03:18:03;;;;;;;;;;;22.90;36.10;;;;;;1551027;75;765;-56
2021/03/11 03:20:06;;;;;;;;;;;22.90;36.10;;;;;;1554022;75;726;-56
2021/03/11 03:22:08;;;;;;;;;;;22.90;36.00;;;;;;1555859;75;1134;-53
2021/03/11 03:24:11;;;;;;;;;;;22.90;35.90;;;;;;1552566;75;826;-53
2021/03/11 03:26:13;;;;;;;;;;;22.90;36.00;;;;;;1555116;75;1907;-56
2021/03/11 03:28:15;;;;;;;;;;;22.80;35.80;;;;;;1553581;75;816;-52
2021/03/11 03:30:17;;;;;;;;;;;22.80;36.00;;;;;;1548235;75;782;-53
2021/03/11 03:32:19;;;;;;;;;;;22.80;36.00;;;;;;1548307;75;1123;-55
2021/03/11 03:34:21;;;;;;;;;;;22.80;36.20;;;;;;1550610;75;740;-56
2021/03/11 03:36:23;;;;;;;;;;;22.60;36.10;;;;;;1551037;75;663;-56
2021/03/11 03:38:25;;;;;;;;;;;22.70;36.20;;;;;;1554087;75;712;-54
2021/03/11 03:40:27;;;;;;;;;;;22.60;36.20;;;;;;1555204;75;810;-52
2021/03/11 03:42:29;;;;;;;;;;;22.70;36.30;;;;;;1551483;75;1108;-57
2021/03/11 03:44:32;;;;;;;;;;;22.60;36.30;;;;;;1537492;75;801;-56
2021/03/11 03:46:34;;;;;;;;;;;22.60;36.30;;;;;;1560064;75;1944;-56
2021/03/11 03:48:44;;;;;;;;;;;22.60;36.30;;;;;;1541972;75;778;-57
2021/03/11 03:50:48;;;;;;;;;;;22.60;36.50;;;;;;1546837;75;689;-54
2021/03/11 03:52:50;;;;;;;;;;;22.60;36.50;;;;;;1541371;75;1069;-56
2021/03/11 03:54:52;;;;;;;;;;;22.70;36.50;;;;;;1539041;75;693;-56
2021/03/11 03:57:12;;;;;;;;;;;22.60;36.40;;;;;;1541324;75;697;-53
2021/03/11 03:59:16;;;;;;;;;;;22.60;36.50;;;;;;1563624;75;741;-53
2021/03/11 04:01:18;;;;;;;;;;;22.60;36.40;;;;;;1553868;75;1176;-57
2021/03/11 04:03:20;;;;;;;;;;;22.60;36.40;;;;;;1565050;74;768;-57
2021/03/11 04:05:22;;;;;;;;;;;22.60;36.30;;;;;;1557663;74;704;-57
2021/03/11 04:07:24;;;;;;;;;;;22.60;36.30;;;;;;1558886;74;1933;-57
2021/03/11 04:09:26;;;;;;;;;;;22.60;36.30;;;;;;1570206;74;760;-57
2021/03/11 04:11:28;;;;;;;;;;;22.60;36.30;;;;;;1558082;74;1152;-58
2021/03/11 04:13:30;;;;;;;;;;;22.60;36.10;;;;;;1564001;74;727;-57
2021/03/11 04:15:32;;;;;;;;;;;22.60;36.10;;;;;;1565257;74;947;-53
2021/03/11 04:17:34;;;;;;;;;;;22.60;36.10;;;;;;1567706;74;764;-56
2021/03/11 04:19:36;;;;;;;;;;;22.60;36.10;;;;;;1566791;75;771;-57
2021/03/11 04:21:38;;;;;;;;;;;22.60;36.00;;;;;;1566836;74;1093;-56
2021/03/11 04:23:40;;;;;;;;;;;22.60;35.90;;;;;;1561575;74;741;-55
2021/03/11 04:25:42;;;;;;;;;;;22.60;35.90;;;;;;1555167;74;756;-53
2021/03/11 04:27:44;;;;;;;;;;;22.60;35.90;;;;;;1562159;75;1945;-57
2021/03/11 04:29:45;;;;;;;;;;;22.70;35.90;;;;;;1563751;74;743;-57
2021/03/11 04:31:47;;;;;;;;;;;22.70;35.90;;;;;;1559902;74;1158;-56
2021/03/11 04:33:49;;;;;;;;;;;22.70;35.80;;;;;;1561189;74;804;-57
2021/03/11 04:35:51;;;;;;;;;;;22.70;35.70;;;;;;1556660;74;731;-57
2021/03/11 04:37:53;;;;;;;;;;;22.70;35.80;;;;;;1561157;74;792;-57
2021/03/11 04:39:55;;;;;;;;;;;22.70;35.70;;;;;;1562475;74;757;-56
2021/03/11 04:41:57;;;;;;;;;;;22.70;35.70;;;;;;1563493;74;1141;-56
2021/03/11 04:44:00;;;;;;;;;;;22.70;35.60;;;;;;1573173;74;853;-54
2021/03/11 04:46:02;;;;;;;;;;;22.70;35.60;;;;;;1557853;74;780;-56
2021/03/11 04:48:04;;;;;;;;;;;22.70;35.60;;;;;;1567410;74;1950;-56
2021/03/11 04:50:06;;;;;;;;;;;22.70;35.70;;;;;;1571820;74;726;-57
2021/03/11 04:52:11;;;;;;;;;;;22.70;35.60;;;;;;1569326;74;1150;-56
2021/03/11 04:54:13;;;;;;;;;;;22.70;35.60;;;;;;1560197;74;744;-54
2021/03/11 04:56:15;;;;;;;;;;;22.70;35.50;;;;;;1560731;74;734;-54
2021/03/11 04:58:17;;;;;;;;;;;22.80;35.50;;;;;;1572125;75;805;-56
2021/03/11 05:00:19;;;;;;;;;;;22.80;35.50;;;;;;1566915;74;778;-54
2021/03/11 05:02:21;;;;;;;;;;;22.70;35.50;;;;;;1546422;75;1153;-57
2021/03/11 05:04:23;;;;;;;;;;;22.80;35.50;;;;;;1557576;75;720;-55
2021/03/11 05:06:24;;;;;;;;;;;22.80;35.30;;;;;;1543643;75;727;-55
2021/03/11 05:08:26;;;;;;;;;;;22.80;35.40;;;;;;1544550;75;1932;-53
2021/03/11 05:10:28;;;;;;;;;;;22.70;35.30;;;;;;1547285;75;789;-57
2021/03/11 05:12:30;;;;;;;;;;;22.80;35.30;;;;;;1546648;75;1174;-56
2021/03/11 05:14:32;;;;;;;;;;;22.80;35.30;;;;;;1542002;75;739;-57
2021/03/11 05:16:34;;;;;;;;;;;22.70;35.20;;;;;;1544906;75;741;-57
2021/03/11 05:18:36;;;;;;;;;;;22.80;35.20;;;;;;1547704;75;727;-57
2021/03/11 05:20:38;;;;;;;;;;;22.70;35.20;;;;;;1551637;75;704;-56
2021/03/11 05:22:40;;;;;;;;;;;22.80;35.20;;;;;;1547642;75;1139;-54
2021/03/11 05:24:42;;;;;;;;;;;22.70;35.30;;;;;;1559160;75;767;-56
2021/03/11 05:26:43;;;;;;;;;;;22.70;35.40;;;;;;1552772;75;674;-53
2021/03/11 05:28:45;;;;;;;;;;;22.80;35.50;;;;;;1549851;75;1947;-56
2021/03/11 05:30:47;;;;;;;;;;;22.80;35.30;;;;;;1556538;75;725;-57
2021/03/11 05:32:49;;;;;;;;;;;22.80;35.30;;;;;;1560617;75;1089;-56
2021/03/11 05:34:51;;;;;;;;;;;22.80;35.30;;;;;;1548742;75;701;-54
2021/03/11 05:36:53;;;;;;;;;;;22.80;35.30;;;;;;1544431;75;742;-56
2021/03/11 05:38:55;;;;;;;;;;;22.70;35.20;;;;;;1535901;75;773;-56
2021/03/11 05:40:57;;;;;;;;;;;22.70;35.20;;;;;;1538308;75;782;-55
2021/03/11 05:42:59;;;;;;;;;;;22.80;35.20;;;;;;1539440;75;1146;-53
2021/03/11 05:45:04;;;;;;;;;;;22.80;35.40;;;;;;1546194;75;764;-54
2021/03/11 05:47:05;;;;;;;;;;;22.80;35.30;;;;;;1549674;75;1931;-56
2021/03/11 05:49:10;;;;;;;;;;;22.80;35.40;;;;;;1550379;75;775;-53
2021/03/11 05:51:12;;;;;;;;;;;22.80;35.20;;;;;;1547629;75;1113;-56
2021/03/11 05:53:14;;;;;;;;;;;22.80;35.20;;;;;;1545989;75;772;-55
2021/03/11 05:55:16;;;;;;;;;;;22.80;35.20;;;;;;1548129;75;706;-55
2021/03/11 05:57:17;;;;;;;;;;;22.80;35.10;;;;;;1554029;75;744;-54
2021/03/11 05:59:19;;;;;;;;;;;22.80;35.00;;;;;;1553244;75;765;-56
2021/03/11 06:01:21;;;;;;;;;;;22.80;35.00;;;;;;1539540;75;1088;-57
2021/03/11 06:03:23;;;;;;;;;;;22.80;35.20;;;;;;1562520;75;974;-57
2021/03/11 06:05:26;;;;;;;;;;;22.80;35.10;;;;;;1554634;75;793;-57
2021/03/11 06:07:28;;;;;;;;;;;22.80;35.00;;;;;;1571528;75;1942;-58
2021/03/11 06:09:29;;;;;;;;;;;22.80;35.10;;;;;;1554960;75;724;-57
2021/03/11 06:11:31;;;;;;;;;;;22.90;35.20;;;;;;1542821;75;1190;-57
2021/03/11 06:13:34;;;;;;;;;;;22.90;35.00;;;;;;1552927;75;727;-57
2021/03/11 06:15:36;;;;;;;;;;;22.90;35.20;;;;;;1544104;75;789;-56
2021/03/11 06:17:38;;;;;;;;;;;22.90;35.10;;;;;;1549477;75;838;-57
2021/03/11 06:19:40;;;;;;;;;;;22.90;35.10;;;;;;1546540;75;790;-57
2021/03/11 06:21:43;;;;;;;;;;;22.90;35.10;;;;;;1560300;75;1142;-56
2021/03/11 06:23:45;;;;;;;;;;;22.90;35.10;;;;;;1554583;75;701;-57
2021/03/11 06:25:49;;;;;;;;;;;22.90;34.70;;;;;;1556563;75;738;-56
2021/03/11 06:27:51;;;;;;;;;;;22.80;34.40;;;;;;1541927;75;1922;-58
2021/03/11 06:29:55;;;;;;;;;;;22.90;34.40;;;;;;1548150;75;770;-57
2021/03/11 06:31:58;;;;;;;;;;;22.80;34.50;;;;;;1553910;74;1180;-58
2021/03/11 06:34:00;;;;;;;;;;;22.90;34.70;;;;;;1552619;75;813;-58
2021/03/11 06:36:14;;;;;;;;;;;23.00;34.60;;;;;;1551808;75;681;-57
2021/03/11 06:38:28;;;;;;;;;;;22.90;34.40;;;;;;1547412;75;743;-57
2021/03/11 06:40:31;;;;;;;;;;;23.00;34.20;;;;;;1542681;75;736;-55
2021/03/11 06:42:32;;;;;;;;;;;23.00;34.10;;;;;;1555089;75;1122;-56
2021/03/11 06:44:35;;;;;;;;;;;22.90;34.00;;;;;;1550032;75;768;-54
2021/03/11 06:46:37;;;;;;;;;;;22.90;34.00;;;;;;1557648;75;802;-56
2021/03/11 06:48:39;;;;;;;;;;;22.90;33.90;;;;;;1555001;75;1946;-57
2021/03/11 06:50:41;;;;;;;;;;;22.80;33.70;;;;;;1554891;75;759;-54
2021/03/11 06:53:02;;;;;;;;;;;22.90;33.80;;;;;;1542650;75;1123;-58
2021/03/11 06:55:05;;;;;;;;;;;22.90;33.70;;;;;;1554337;75;920;-55
2021/03/11 06:57:07;;;;;;;;;;;22.80;33.50;;;;;;1554841;75;703;-56
2021/03/11 06:59:09;;;;;;;;;;;22.90;33.60;;;;;;1535925;75;778;-56
2021/03/11 07:01:11;;;;;;;;;;;23.00;33.60;;;;;;1557520;75;1206;-56
2021/03/11 07:03:13;;;;;;;;;;;23.00;33.70;;;;;;1555775;75;1095;-56
2021/03/11 07:05:15;;;;;;;;;;;23.00;33.50;;;;;;1554094;75;738;-53
2021/03/11 07:07:18;;;;;;;;;;;23.10;33.70;;;;;;1552751;75;887;-58
2021/03/11 07:09:20;;;;;;;;;;;23.10;33.50;;;;;;1550095;75;1930;-55
2021/03/11 07:11:21;;;;;;;;;;;23.10;33.50;;;;;;1522101;76;1137;-57
2021/03/11 07:13:23;;;;;;;;;;;23.10;33.30;;;;;;1555524;75;773;-57
2021/03/11 07:15:26;;;;;;;;;;;23.20;33.20;;;;;;1519509;76;817;-57
2021/03/11 07:17:28;;;;;;;;;;;23.10;33.10;;;;;;1548189;75;720;-56
2021/03/11 07:19:30;;;;;;;;;;;23.10;33.10;;;;;;1550104;75;713;-56
2021/03/11 07:21:41;;;;;;;;;;;23.10;33.00;;;;;;1553346;75;1131;-57
2021/03/11 07:23:45;;;;;;;;;;;23.00;32.90;;;;;;1545185;75;832;-57
2021/03/11 07:25:47;;;;;;;;;;;23.00;33.00;;;;;;1546863;75;1837;-54
2021/03/11 07:27:49;;;;;;;;;;;23.10;32.90;;;;;;1547384;75;1916;-53
2021/03/11 07:30:03;;;;;;;;;;;23.20;32.70;;;;;;1551295;75;751;-58
2021/03/11 07:32:06;;;;;;;;;;;23.10;32.60;;;;;;1554631;75;1129;-59
2021/03/11 07:34:08;;;;;;;;;;;23.20;32.60;;;;;;1560494;75;720;-54
2021/03/11 07:36:10;;;;;;;;;;;23.20;30.90;;;;;;1561826;75;728;-58
2021/03/11 07:38:13;;;;;;;;;;;23.10;30.80;;;;;;1557775;75;766;-56
2021/03/11 07:40:15;;;;;;;;;;;23.10;30.70;;;;;;1532422;76;755;-58
2021/03/11 07:42:17;;;;;;;;;;;23.20;30.60;;;;;;1565690;75;1128;-58
2021/03/11 07:44:19;;;;;;;;;;;23.20;30.30;;;;;;1561388;75;797;-58
2021/03/11 07:46:21;;;;;;;;;;;23.10;30.00;;;;;;1551450;75;691;-56
2021/03/11 07:48:22;;;;;;;;;;;23.10;29.50;;;;;;1566071;75;1932;-55
2021/03/11 07:50:24;;;;;;;;;;;23.00;28.90;;;;;;1552845;75;784;-54
2021/03/11 07:52:26;;;;;;;;;;;23.10;28.60;;;;;;1556301;75;1155;-56
2021/03/11 07:54:28;;;;;;;;;;;23.00;28.90;;;;;;1562973;75;744;-58
2021/03/11 07:56:30;;;;;;;;;;;23.00;28.60;;;;;;1567832;75;778;-59
2021/03/11 07:58:32;;;;;;;;;;;23.00;28.10;;;;;;1553335;75;941;-57
2021/03/11 08:00:34;;;;;;;;;;;22.90;28.20;;;;;;1563491;75;782;-57
2021/03/11 08:02:36;;;;;;;;;;;22.90;28.10;;;;;;1558364;74;1150;-57
2021/03/11 08:04:41;;;;;;;;;;;22.90;27.90;;;;;;1551843;75;1121;-58
2021/03/11 08:06:43;;;;;;;;;;;22.90;28.30;;;;;;1544301;75;751;-57
2021/03/11 08:08:46;;;;;;;;;;;22.90;28.10;;;;;;1555067;75;1938;-57
2021/03/11 08:10:49;;;;;;;;;;;23.00;28.00;;;;;;1544443;75;703;-57
2021/03/11 08:12:51;;;;;;;;;;;23.00;28.10;;;;;;1530935;75;1177;-58
2021/03/11 08:14:53;;;;;;;;;;;23.00;27.80;;;;;;1534545;75;725;-58
2021/03/11 08:16:57;;;;;;;;;;;23.00;27.80;;;;;;1550327;75;757;-59
2021/03/11 08:18:59;;;;;;;;;;;23.00;28.00;;;;;;1554462;75;1903;-56
2021/03/11 08:21:01;;;;;;;;;;;23.00;28.00;;;;;;1554513;75;651;-55
2021/03/11 08:23:03;;;;;;;;;;;23.00;27.90;;;;;;1552909;75;760;-58
2021/03/11 08:25:05;;;;;;;;;;;23.00;27.50;;;;;;1546866;75;793;-55
2021/03/11 08:27:09;;;;;;;;;;;22.90;27.10;;;;;;1539716;75;770;-58
2021/03/11 08:29:18;;;;;;;;;;;22.90;27.00;;;;;;1529445;75;1925;-57
2021/03/11 08:31:20;;;;;;;;;;;22.80;27.50;;;;;;1541943;75;1149;-56
2021/03/11 08:33:23;;;;;;;;;;;22.90;27.60;;;;;;1519686;77;1114;-59
2021/03/11 08:35:30;;;;;;;;;;;22.90;27.90;;;;;;1544076;75;629;-55
2021/03/11 08:37:32;;;;;;;;;;;22.90;27.60;;;;;;1551921;75;728;-58
2021/03/11 08:39:34;;;;;;;;;;;22.90;27.40;;;;;;1539695;75;730;-55
2021/03/11 08:41:36;;;;;;;;;;;22.80;27.20;;;;;;1541568;75;1170;-54
2021/03/11 08:43:40;;;;;;;;;;;22.90;27.40;;;;;;1547303;75;700;-60
2021/03/11 08:45:43;;;;;;;;;;;22.90;26.70;;;;;;1551071;75;718;-56
2021/03/11 08:48:03;;;;;;;;;;;22.80;26.50;;;;;;1554942;75;766;-60
2021/03/11 08:50:06;;;;;;;;;;;22.70;27.10;;;;;;1550493;75;778;-59
2021/03/11 08:52:10;;;;;;;;;;;22.80;27.00;;;;;;1551952;75;1091;-58
2021/03/11 08:54:21;;;;;;;;;;;22.70;26.70;;;;;;1546696;75;1634;-58
2021/03/11 08:56:25;;;;;;;;;;;22.60;27.20;;;;;;1547728;75;802;-59
2021/03/11 08:58:27;;;;;;;;;;;22.60;27.30;;;;;;1557611;75;789;-57
2021/03/11 09:00:47;;;;;;;;;;;22.60;27.10;;;;;;1543852;75;751;-59
2021/03/11 09:02:49;;;;;;;;;;;22.60;27.10;;;;;;1543305;75;1147;-57
2021/03/11 09:04:51;;;;;;;;;;;22.60;26.70;;;;;;1541841;75;1117;-57
2021/03/11 09:07:00;;;;;;;;;;;22.60;27.70;;;;;;1557403;75;806;-60
2021/03/11 09:09:02;;;;;;;;;;;22.60;27.50;;;;;;1557707;75;1916;-58
2021/03/11 09:11:07;;;;;;;;;;;22.60;27.90;;;;;;1548589;75;1165;-57
2021/03/11 09:13:13;;;;;;;;;;;22.50;28.30;;;;;;1543237;75;783;-57
2021/03/11 09:15:16;;;;;;;;;;;22.50;28.50;;;;;;1553517;75;592;-59
2021/03/11 09:17:19;;;;;;;;;;;22.50;28.60;;;;;;1550658;75;781;-58
2021/03/11 09:19:21;;;;;;;;;;;22.50;28.80;;;;;;1555855;75;752;-58
2021/03/11 09:21:24;;;;;;;;;;;22.60;29.00;;;;;;1564746;75;1160;-58
2021/03/11 09:23:34;;;;;;;;;;;22.60;29.10;;;;;;1558418;75;1872;-55
2021/03/11 09:25:36;;;;;;;;;;;22.60;29.20;;;;;;1553574;75;1801;-58
2021/03/11 09:27:42;;;;;;;;;;;22.60;29.30;;;;;;1555248;75;766;-59
2021/03/11 09:29:50;;;;;;;;;;;22.60;29.40;;;;;;1531995;76;1940;-58
2021/03/11 09:31:52;;;;;;;;;;;22.60;29.60;;;;;;1553463;75;1141;-57
2021/03/11 09:33:57;;;;;;;;;;;22.60;29.70;;;;;;1557038;75;740;-59
2021/03/11 09:36:00;;;;;;;;;;;22.60;29.70;;;;;;1555229;75;786;-55
2021/03/11 09:38:03;;;;;;;;;;;22.60;29.80;;;;;;1553836;75;1744;-60
2021/03/11 09:40:05;;;;;;;;;;;22.60;29.90;;;;;;1551212;75;742;-59
2021/03/11 09:42:10;;;;;;;;;;;22.60;29.90;;;;;;1560942;75;1188;-58
2021/03/11 09:44:12;;;;;;;;;;;22.70;30.00;;;;;;1547291;75;700;-55
2021/03/11 09:46:17;;;;;;;;;;;22.60;30.00;;;;;;1551705;74;799;-54
2021/03/11 09:48:24;;;;;;;;;;;22.70;30.20;;;;;;1565734;75;812;-54
2021/03/11 09:50:26;;;;;;;;;;;22.70;30.20;;;;;;1550782;75;1897;-52
2021/03/11 09:52:28;;;;;;;;;;;22.70;30.20;;;;;;1559493;75;1152;-57
2021/03/11 09:54:29;;;;;;;;;;;22.70;30.30;;;;;;1556313;75;749;-57
2021/03/11 09:56:36;;;;;;;;;;;22.80;30.30;;;;;;1558419;74;797;-57
2021/03/11 09:58:39;;;;;;;;;;;22.70;30.30;;;;;;1557004;75;1866;-55
2021/03/11 10:00:41;;;;;;;;;;;22.80;30.30;;;;;;1560485;75;1057;-55
2021/03/11 10:02:50;;;;;;;;;;;22.90;30.50;;;;;;1559005;74;1129;-55
2021/03/11 10:04:51;;;;;;;;;;;22.80;30.40;;;;;;1555057;75;1103;-56
2021/03/11 10:06:54;;;;;;;;;;;22.80;30.40;;;;;;1551959;75;766;-55
2021/03/11 10:08:57;;;;;;;;;;;22.80;30.40;;;;;;1553708;74;1946;-53
2021/03/11 10:11:03;;;;;;;;;;;22.80;30.50;;;;;;1554035;75;764;-56
2021/03/11 10:13:05;;;;;;;;;;;22.80;30.50;;;;;;1553005;75;805;-56
2021/03/11 10:15:07;;;;;;;;;;;22.90;30.60;;;;;;1560823;75;781;-56
2021/03/11 10:17:10;;;;;;;;;;;22.80;30.50;;;;;;1558737;75;878;-56
2021/03/11 10:19:19;;;;;;;;;;;22.80;30.50;;;;;;1551416;75;1700;-54
2021/03/11 10:21:21;;;;;;;;;;;22.80;30.50;;;;;;1558133;75;1149;-53
2021/03/11 10:23:23;;;;;;;;;;;22.80;30.50;;;;;;1550087;75;727;-56
2021/03/11 10:25:25;;;;;;;;;;;22.90;30.70;;;;;;1545820;75;853;-55
2021/03/11 10:27:28;;;;;;;;;;;22.90;30.70;;;;;;1554688;75;785;-56
2021/03/11 10:29:30;;;;;;;;;;;22.90;30.70;;;;;;1552623;75;1931;-53
2021/03/11 10:31:32;;;;;;;;;;;22.90;30.70;;;;;;1553402;75;1156;-53
2021/03/11 10:33:34;;;;;;;;;;;22.90;30.70;;;;;;1554061;75;681;-53
2021/03/11 10:35:37;;;;;;;;;;;22.90;30.70;;;;;;1554840;75;692;-56
2021/03/11 10:37:39;;;;;;;;;;;23.00;30.70;;;;;;1557613;75;750;-54
2021/03/11 10:40:00;;;;;;;;;;;22.90;30.70;;;;;;1547244;75;815;-56
2021/03/11 10:42:04;;;;;;;;;;;23.00;30.70;;;;;;1546542;75;1233;-56
2021/03/11 10:44:07;;;;;;;;;;;22.90;30.70;;;;;;1556142;75;736;-54
2021/03/11 10:46:10;;;;;;;;;;;23.00;30.70;;;;;;1555437;75;610;-55
2021/03/11 10:48:12;;;;;;;;;;;23.00;30.70;;;;;;1558273;75;1819;-54
2021/03/11 10:50:21;;;;;;;;;;;23.00;30.70;;;;;;1545087;75;1928;-58
2021/03/11 10:52:23;;;;;;;;;;;23.00;30.70;;;;;;1555194;75;1154;-57
2021/03/11 10:54:29;;;;;;;;;;;22.90;30.70;;;;;;1554509;75;781;-59
2021/03/11 10:56:32;;;;;;;;;;;23.10;30.80;;;;;;1556155;74;1519;-56
2021/03/11 10:58:34;;;;;;;;;;;23.10;30.70;;;;;;1556289;75;708;-59
2021/03/11 11:00:36;;;;;;;;;;;23.00;30.50;;;;;;1556579;75;776;-59
2021/03/11 11:02:38;;;;;;;;;;;23.00;30.50;;;;;;1557247;74;1135;-57
2021/03/11 11:04:44;;;;;;;;;;;23.00;30.40;;;;;;1544594;75;1125;-59
2021/03/11 11:06:43;;;;;;;;;;;23.10;30.30;;;;;;1570464;74;976;-58
2021/03/11 11:08:45;;;;;;;;;;;23.10;30.00;;;;;;1572856;74;673;-57
2021/03/11 11:10:47;;;;;;;;;;;23.10;30.00;;;;;;1579778;74;1974;-56
2021/03/11 11:12:49;;;;;;;;;;;23.10;29.80;;;;;;1569043;74;1165;-54
2021/03/11 11:14:51;;;;;;;;;;;23.20;29.70;;;;;;1574374;74;831;-55
2021/03/11 11:16:53;;;;;;;;;;;23.10;29.70;;;;;;1576296;74;816;-54
2021/03/11 11:18:55;;;;;;;;;;;23.10;29.70;;;;;;1571976;74;853;-59
2021/03/11 11:20:57;;;;;;;;;;;23.10;29.80;;;;;;1578892;74;685;-60
2021/03/11 11:22:58;;;;;;;;;;;23.10;29.80;;;;;;1575117;74;1084;-59
2021/03/11 11:25:00;;;;;;;;;;;23.10;29.90;;;;;;1571328;74;776;-57
2021/03/11 11:27:02;;;;;;;;;;;23.10;29.90;;;;;;1566452;74;748;-58
2021/03/11 11:29:05;;;;;;;;;;;23.10;30.00;;;;;;1574759;74;1927;-57
2021/03/11 11:31:07;;;;;;;;;;;23.10;30.00;;;;;;1568912;74;1137;-55
2021/03/11 11:33:09;;;;;;;;;;;23.10;30.00;;;;;;1564574;74;765;-57
2021/03/11 11:35:14;;;;;;;;;;;23.10;30.00;;;;;;1567175;74;775;-56
2021/03/11 11:37:15;;;;;;;;;;;23.10;30.00;;;;;;1571005;74;1714;-57
2021/03/11 11:39:17;;;;;;;;;;;23.10;30.10;;;;;;1566950;74;719;-57
2021/03/11 11:41:19;;;;;;;;;;;23.00;29.90;;;;;;1572775;74;1185;-57
2021/03/11 11:43:21;;;;;;;;;;;23.10;30.00;;;;;;1572667;74;765;-57
2021/03/11 11:45:23;;;;;;;;;;;23.10;30.00;;;;;;1575571;74;735;-55
2021/03/11 11:47:25;;;;;;;;;;;23.20;30.00;;;;;;1571343;74;822;-57
2021/03/11 11:49:26;;;;;;;;;;;23.10;30.00;;;;;;1567551;74;1907;-58
2021/03/11 11:51:28;;;;;;;;;;;23.10;30.10;;;;;;1562917;74;1128;-57
2021/03/11 11:53:30;;;;;;;;;;;23.20;30.10;;;;;;1561234;74;740;-58
2021/03/11 11:55:32;;;;;;;;;;;23.10;30.00;;;;;;1566466;74;772;-58
2021/03/11 11:57:34;;;;;;;;;;;23.20;30.00;;;;;;1571277;74;938;-56
2021/03/11 11:59:36;;;;;;;;;;;23.20;30.10;;;;;;1576012;74;845;-53
2021/03/11 12:01:38;;;;;;;;;;;23.20;30.10;;;;;;1583130;74;1159;-53
2021/03/11 12:03:40;;;;;;;;;;;23.20;30.00;;;;;;1568210;74;792;-59
2021/03/11 12:05:42;;;;;;;;;;;23.20;30.20;;;;;;1562940;74;1106;-56
2021/03/11 12:07:44;;;;;;;;;;;23.20;30.20;;;;;;1551965;75;691;-56
2021/03/11 12:09:46;;;;;;;;;;;23.20;30.20;;;;;;1559538;75;1944;-60
2021/03/11 12:11:48;;;;;;;;;;;23.20;30.30;;;;;;1542449;75;1224;-61
2021/03/11 12:13:49;;;;;;;;;;;23.10;30.30;;;;;;1545852;75;769;-58